To NAV CANADA Home Page Login to a new session Search on AWWS site Feedback and Comments Disclaimer Vers la page française équivalente Tips FAQ What's new on the site To the Forecasts and Observations / NOTAM section To "File a Flight Plan" website Publications and other links Update of the User's profile FIC Telephone Numbers My Weather Data Folder Route Weather Data Regional Weather Data Local Weather Data To the Forecasts and Observations / NOTAM section
Request Generated 05/29/2016 at 22:51:00 UTC . Weather information available at that time is displayed.

METAR/TAF

ROBERVAL/QC    

METAR CYRJ 292200Z 11003KT 040V150 25SM FEW006 OVC012 14/13 A2998 RMK
SF1SF8 SF TR SLP156=
METAR CYRJ 292100Z 11004KT 090V150 25SM OVC009 14/12 A2999 RMK SF8
SLP162=
SPECI CYRJ 292044Z 10003KT 050V140 25SM OVC008 14/12 A3000 RMK SF8
PRESFR SLP163=
METAR CYRJ 292000Z 10002KT 25SM -RA OVC008 13/12 A3003 RMK SF8 CIG
VRB 6-10 SLP174=

TAF CYRJ 291938Z 2920/3002 VRB03KT P6SM OVC008 TEMPO 2920/2922 P6SM
-SHRA BKN015
FM292200 VRB03KT P6SM -SHRA SCT008 OVC025 TEMPO 2922/3002 3SM
SHRA BR OVC008 PROB30 2922/3002 2SM TSRA BR BKN006 OVC030CB
RMK NXT FCST WILL BE ISSUED AT 301145Z=
Your time UTC time
Weather data provided by Environment Canada and NAV CANADA